Time;durP1;ratioP1;P1;durP2;ratioP2;P2;SDS_P1;SDS_P2;PMS_P1;PMS_P2;Temp;Humidity;BMP_temperature;BMP_pressure;BME280_temperature;BME280_humidity;BME280_pressure;Samples;Min_cycle;Max_cycle;Signal;HPM_P1;HPM_P2
2022/03/06 00:00:34;;;;;;;1999.90;999.90;;;;;;;-1.74;45.31;102076.09;5017125;27;97199;-73
2022/03/06 00:03:04;;;;;;;1999.90;999.90;;;;;;;-1.31;44.19;102073.94;5014352;27;97826;-74
2022/03/06 00:05:32;;;;;;;1999.90;999.90;;;;;;;-1.61;44.51;102079.03;5000069;28;99299;-74
2022/03/06 00:07:59;;;;;;;1999.90;999.90;;;;;;;-1.70;45.02;102079.88;5017069;27;97316;-74
2022/03/06 00:10:27;;;;;;;1999.90;999.90;;;;;;;-1.27;44.10;102081.25;5016752;27;97690;-74
2022/03/06 00:12:57;;;;;;;1999.90;999.90;;;;;;;-1.07;43.55;102081.31;5016682;27;97817;-73
2022/03/06 00:15:26;;;;;;;1999.90;999.90;;;;;;;-1.43;44.10;102083.28;5018379;27;100894;-74
2022/03/06 00:17:55;;;;;;;1999.90;999.90;;;;;;;-1.53;45.03;102085.88;5017053;27;97405;-73
2022/03/06 00:20:23;;;;;;;1999.90;999.90;;;;;;;-1.61;44.82;102085.94;5017725;27;97502;-74
2022/03/06 00:22:51;;;;;;;1999.90;999.90;;;;;;;-1.65;45.09;102089.06;5018158;27;98736;-74
2022/03/06 00:25:19;;;;;;;1999.90;999.90;;;;;;;-1.71;44.75;102084.22;5013917;27;98911;-74
2022/03/06 00:27:48;;;;;;;1999.90;999.90;;;;;;;-1.70;45.35;102074.66;5018121;27;97003;-74
2022/03/06 00:30:17;;;;;;;1999.90;999.90;;;;;;;-1.72;44.89;102078.84;5017758;27;97314;-73
2022/03/06 00:32:45;;;;;;;1999.90;999.90;;;;;;;-1.75;44.94;102081.16;4989354;28;101227;-72
2022/03/06 00:35:13;;;;;;;1999.90;999.90;;;;;;;-1.79;45.04;102077.38;5014594;27;99681;-74
2022/03/06 00:37:41;;;;;;;1999.90;999.90;;;;;;;-1.79;45.33;102079.97;5014827;27;97944;-74
2022/03/06 00:40:10;;;;;;;1999.90;999.90;;;;;;;-1.83;45.36;102082.19;5000018;27;97361;-74
2022/03/06 00:42:38;;;;;;;1999.90;999.90;;;;;;;-1.85;45.00;102088.16;5017582;27;99597;-74
2022/03/06 00:45:07;;;;;;;1999.90;999.90;;;;;;;-1.85;45.40;102080.34;5018070;27;98843;-74
2022/03/06 00:47:38;;;;;;;1999.90;999.90;;;;;;;-1.86;45.60;102088.03;5015378;27;97676;-73
2022/03/06 00:50:06;;;;;;;1999.90;999.90;;;;;;;-1.87;45.08;102084.50;5016257;27;96979;-73
2022/03/06 00:52:34;;;;;;;1999.90;999.90;;;;;;;-1.88;45.33;102084.34;5017394;27;99885;-75
2022/03/06 00:55:02;;;;;;;1999.90;999.90;;;;;;;-1.91;45.39;102091.91;5013415;27;100400;-74
2022/03/06 00:57:30;;;;;;;1999.90;999.90;;;;;;;-1.94;45.13;102089.94;5016306;27;97240;-74
2022/03/06 00:59:57;;;;;;;1999.90;999.90;;;;;;;-1.95;45.65;102087.19;5000193;28;98119;-73
2022/03/06 01:02:26;;;;;;;1999.90;999.90;;;;;;;-1.96;45.20;102091.47;5016883;27;98060;-72
2022/03/06 01:04:55;;;;;;;1999.90;999.90;;;;;;;-1.95;45.40;102097.63;5009926;27;99281;-70
2022/03/06 01:07:23;;;;;;;1999.90;999.90;;;;;;;-1.94;45.57;102097.75;4993860;27;97246;-74
2022/03/06 01:09:51;;;;;;;1999.90;999.90;;;;;;;-1.52;44.48;102090.28;5008427;27;98492;-73
2022/03/06 01:12:20;;;;;;;1999.90;999.90;;;;;;;-1.73;45.28;102090.97;4995345;27;97723;-71
2022/03/06 01:14:48;;;;;;;1999.90;999.90;;;;;;;-1.77;45.24;102098.38;5014992;27;97708;-74
2022/03/06 01:17:18;;;;;;;1999.90;999.90;;;;;;;-1.82;45.43;102097.03;5015581;27;98138;-74
2022/03/06 01:19:47;;;;;;;1999.90;999.90;;;;;;;-1.85;44.90;102100.28;5019032;27;97097;-73
2022/03/06 01:22:16;;;;;;;1999.90;999.90;;;;;;;-1.86;45.57;102106.28;5016133;27;97974;-74
2022/03/06 01:24:44;;;;;;;1999.90;999.90;;;;;;;-1.86;45.33;102102.00;5014326;27;98700;-74
2022/03/06 01:27:12;;;;;;;1999.90;999.90;;;;;;;-1.87;45.65;102102.75;5015391;27;98498;-74
2022/03/06 01:29:39;;;;;;;1999.90;999.90;;;;;;;-1.88;45.59;102100.94;5014158;27;98281;-73
2022/03/06 01:32:08;;;;;;;1999.90;999.90;;;;;;;-1.87;45.45;102102.75;5015364;27;99309;-73
2022/03/06 01:34:36;;;;;;;1999.90;999.90;;;;;;;-1.86;45.09;102098.47;5013862;27;99264;-75
2022/03/06 01:37:04;;;;;;;1999.90;999.90;;;;;;;-1.88;45.51;102103.53;5018309;27;98749;-74
2022/03/06 01:39:33;;;;;;;1999.90;999.90;;;;;;;-1.49;44.42;102097.50;5015024;27;98707;-74
2022/03/06 01:42:00;;;;;;;1999.90;999.90;;;;;;;-1.25;43.96;102099.69;5012782;27;98879;-74
2022/03/06 01:44:29;;;;;;;1999.90;999.90;;;;;;;-1.56;44.96;102096.00;5017366;27;97305;-73
2022/03/06 01:46:56;;;;;;;1999.90;999.90;;;;;;;-1.65;45.17;102094.28;5020143;27;97780;-74
2022/03/06 01:49:24;;;;;;;1999.90;999.90;;;;;;;-1.73;44.94;102098.81;5025689;27;97052;-74
2022/03/06 01:51:52;;;;;;;1999.90;999.90;;;;;;;-1.82;45.01;102090.16;5017453;27;99796;-74
2022/03/06 01:54:20;;;;;;;1999.90;999.90;;;;;;;-1.87;45.07;102096.66;5017813;27;98704;-74
2022/03/06 01:56:49;;;;;;;1999.90;999.90;;;;;;;-1.92;45.93;102093.59;4999563;28;96933;-74
2022/03/06 01:59:17;;;;;;;1999.90;999.90;;;;;;;-2.01;45.59;102089.22;4996714;27;97668;-74
2022/03/06 02:01:45;;;;;;;1999.90;999.90;;;;;;;-2.09;45.32;102082.41;5015461;27;98617;-74
2022/03/06 02:04:13;;;;;;;1999.90;999.90;;;;;;;-2.11;45.35;102087.47;5016451;27;99729;-74
2022/03/06 02:06:40;;;;;;;1999.90;999.90;;;;;;;-2.13;45.54;102083.81;5014678;27;97783;-75
2022/03/06 02:09:08;;;;;;;1999.90;999.90;;;;;;;-2.16;45.34;102080.91;5000534;27;97099;-73
2022/03/06 02:11:36;;;;;;;1999.90;999.90;;;;;;;-2.16;46.15;102080.91;5013710;27;98882;-74
2022/03/06 02:14:05;;;;;;;1999.90;999.90;;;;;;;-2.15;45.82;102082.75;5014218;27;97841;-73
2022/03/06 02:16:33;;;;;;;1999.90;999.90;;;;;;;-2.11;45.75;102077.03;5014172;27;97241;-72
2022/03/06 02:19:01;;;;;;;1999.90;999.90;;;;;;;-2.09;45.65;102078.09;5017654;27;97450;-74
2022/03/06 02:21:30;;;;;;;1999.90;999.90;;;;;;;-2.07;45.21;102081.75;4999132;27;100222;-75
2022/03/06 02:23:59;;;;;;;1999.90;999.90;;;;;;;-2.06;45.79;102081.00;5016275;27;98659;-74
2022/03/06 02:26:27;;;;;;;1999.90;999.90;;;;;;;-2.05;45.90;102081.88;4999254;27;98020;-73
2022/03/06 02:28:54;;;;;;;1999.90;999.90;;;;;;;-2.04;45.38;102078.53;5014005;27;98862;-74
2022/03/06 02:31:22;;;;;;;1999.90;999.90;;;;;;;-2.03;45.88;102073.44;5016880;27;98077;-74
2022/03/06 02:33:50;;;;;;;1999.90;999.90;;;;;;;-2.06;45.74;102075.78;5015302;27;97952;-74
2022/03/06 02:36:18;;;;;;;1999.90;999.90;;;;;;;-2.06;45.72;102069.63;5016644;27;96928;-74
2022/03/06 02:38:47;;;;;;;1999.90;999.90;;;;;;;-2.04;45.50;102074.22;5016478;27;96670;-74
2022/03/06 02:41:15;;;;;;;1999.90;999.90;;;;;;;-2.01;45.26;102073.56;5019265;27;98831;-72
2022/03/06 02:43:43;;;;;;;1999.90;999.90;;;;;;;-1.99;45.58;102080.78;5018136;27;97867;-75
2022/03/06 02:46:11;;;;;;;1999.90;999.90;;;;;;;-2.02;45.24;102070.06;5020420;27;97503;-74
2022/03/06 02:48:38;;;;;;;1999.90;999.90;;;;;;;-2.03;45.96;102069.91;5019828;27;97331;-75
2022/03/06 02:51:06;;;;;;;1999.90;999.90;;;;;;;-2.02;45.37;102075.28;5020964;27;97810;-75
2022/03/06 02:53:34;;;;;;;1999.90;999.90;;;;;;;-2.04;45.21;102071.63;5016732;27;99390;-74
2022/03/06 02:56:03;;;;;;;1999.90;999.90;;;;;;;-2.02;45.27;102069.16;5018904;27;97236;-75
2022/03/06 02:58:31;;;;;;;1999.90;999.90;;;;;;;-2.02;45.95;102070.06;5001543;28;96860;-74
2022/03/06 03:00:59;;;;;;;1999.90;999.90;;;;;;;-2.00;45.38;102067.59;5014448;27;99576;-74
2022/03/06 03:03:27;;;;;;;1999.90;999.90;;;;;;;-1.99;45.73;102058.97;5014807;27;97997;-73
2022/03/06 03:05:55;;;;;;;1999.90;999.90;;;;;;;-2.01;45.97;102066.69;5015654;27;97478;-74
2022/03/06 03:08:22;;;;;;;1999.90;999.90;;;;;;;-2.04;45.98;102066.41;5015232;27;96797;-72
2022/03/06 03:10:50;;;;;;;1999.90;999.90;;;;;;;-2.05;45.85;102059.34;5019004;27;97774;-74
2022/03/06 03:13:19;;;;;;;1999.90;999.90;;;;;;;-2.06;45.89;102075.78;5017629;27;98764;-73
2022/03/06 03:15:47;;;;;;;1999.90;999.90;;;;;;;-2.05;45.70;102063.63;5017658;27;97976;-74
2022/03/06 03:18:14;;;;;;;1999.90;999.90;;;;;;;-2.04;45.55;102061.19;5017502;27;97128;-74
2022/03/06 03:20:42;;;;;;;1999.90;999.90;;;;;;;-2.05;45.58;102061.94;5020200;27;97995;-75
2022/03/06 03:23:10;;;;;;;1999.90;999.90;;;;;;;-2.05;46.11;102064.56;5018797;27;98739;-76
2022/03/06 03:25:38;;;;;;;1999.90;999.90;;;;;;;-2.04;45.21;102065.47;5017869;27;96938;-74
2022/03/06 03:28:05;;;;;;;1999.90;999.90;;;;;;;-2.06;45.18;102061.81;5015873;27;97095;-73
2022/03/06 03:30:35;;;;;;;1999.90;999.90;;;;;;;-2.07;45.65;102062.59;5015671;27;98857;-75
2022/03/06 03:33:02;;;;;;;1999.90;999.90;;;;;;;-2.08;46.04;102065.97;5016252;27;100497;-74
2022/03/06 03:35:30;;;;;;;1999.90;999.90;;;;;;;-2.07;45.45;102063.50;5009325;27;97660;-75
2022/03/06 03:37:58;;;;;;;1999.90;999.90;;;;;;;-2.07;45.66;102068.72;5011340;27;98747;-75
2022/03/06 03:40:26;;;;;;;1999.90;999.90;;;;;;;-2.07;46.04;102065.22;5009365;27;103530;-75
2022/03/06 03:42:54;;;;;;;1999.90;999.90;;;;;;;-2.06;45.17;102065.34;5015943;27;99292;-74
2022/03/06 03:45:21;;;;;;;1999.90;999.90;;;;;;;-2.08;44.99;102072.13;5019842;27;96766;-75
2022/03/06 03:47:51;;;;;;;1999.90;999.90;;;;;;;-2.10;45.21;102070.13;5021736;27;97754;-75
2022/03/06 03:52:53;;;;;;;1999.90;999.90;;;;;;;-2.13;45.72;102081.22;5018187;27;99960;-75
2022/03/06 03:55:21;;;;;;;1999.90;999.90;;;;;;;-2.15;45.91;102081.84;5019691;27;99289;-74
2022/03/06 03:57:48;;;;;;;1999.90;999.90;;;;;;;-2.15;45.70;102077.53;5019690;27;97337;-75
2022/03/06 04:00:16;;;;;;;1999.90;999.90;;;;;;;-2.15;45.77;102090.56;5028156;27;99363;-77
2022/03/06 04:02:44;;;;;;;1999.90;999.90;;;;;;;-2.15;45.36;102080.16;5019982;27;98087;-75
2022/03/06 04:05:13;;;;;;;1999.90;999.90;;;;;;;-1.77;44.61;102077.50;5017678;27;99215;-75
2022/03/06 04:07:41;;;;;;;1999.90;999.90;;;;;;;-2.02;45.49;102079.59;5018905;27;97782;-74
2022/03/06 04:10:09;;;;;;;1999.90;999.90;;;;;;;-2.08;46.10;102085.16;5018369;27;99975;-74
2022/03/06 04:12:37;;;;;;;1999.90;999.90;;;;;;;-2.11;45.29;102089.16;5014577;27;99626;-75
2022/03/06 04:15:05;;;;;;;1999.90;999.90;;;;;;;-2.12;46.11;102083.03;5032050;27;97775;-75
2022/03/06 04:17:33;;;;;;;1999.90;999.90;;;;;;;-2.12;45.92;102088.25;5015592;27;97267;-73
2022/03/06 04:20:00;;;;;;;1999.90;999.90;;;;;;;-2.11;45.25;102087.47;5018860;27;97723;-75
2022/03/06 04:22:30;;;;;;;1999.90;999.90;;;;;;;-2.12;45.46;102082.09;5016811;27;97775;-76
2022/03/06 04:24:57;;;;;;;1999.90;999.90;;;;;;;-2.16;45.38;102078.31;5016959;27;97577;-75
2022/03/06 04:27:25;;;;;;;1999.90;999.90;;;;;;;-2.20;46.12;102083.97;5016392;27;97782;-75
2022/03/06 04:29:53;;;;;;;1999.90;999.90;;;;;;;-2.24;45.71;102088.78;5016582;27;98100;-76
2022/03/06 04:32:20;;;;;;;1999.90;999.90;;;;;;;-2.27;46.17;102092.00;5014778;27;98686;-76
2022/03/06 04:34:48;;;;;;;1999.90;999.90;;;;;;;-2.26;46.12;102092.91;5017839;27;98130;-74
2022/03/06 04:37:16;;;;;;;1999.90;999.90;;;;;;;-2.24;45.99;102091.38;5016509;27;98471;-74
2022/03/06 04:39:45;;;;;;;1999.90;999.90;;;;;;;-2.24;45.75;102091.38;5014398;27;99584;-75
2022/03/06 04:42:13;;;;;;;1999.90;999.90;;;;;;;-2.24;45.42;102107.94;5015774;27;99222;-75
2022/03/06 04:44:40;;;;;;;1999.90;999.90;;;;;;;-2.24;46.15;102104.41;5015125;27;97852;-74
2022/03/06 04:47:09;;;;;;;1999.90;999.90;;;;;;;-2.25;45.36;102099.94;5014264;27;98222;-74
2022/03/06 04:49:37;;;;;;;1999.90;999.90;;;;;;;-2.25;46.09;102094.75;5016077;27;98745;-76
2022/03/06 04:52:05;;;;;;;1999.90;999.90;;;;;;;-2.25;45.80;102094.75;5017324;27;97560;-74
2022/03/06 04:54:33;;;;;;;1999.90;999.90;;;;;;;-2.25;45.78;102098.28;5017797;27;98672;-74
2022/03/06 04:57:02;;;;;;;1999.90;999.90;;;;;;;-2.26;45.66;102104.28;5018302;27;96825;-75
2022/03/06 04:59:30;;;;;;;1999.90;999.90;;;;;;;-2.25;45.51;102106.09;5018168;27;100071;-74
2022/03/06 05:01:58;;;;;;;1999.90;999.90;;;;;;;-2.23;45.59;102108.84;5010566;27;97609;-75
2022/03/06 05:04:26;;;;;;;1999.90;999.90;;;;;;;-2.23;45.53;102114.97;5013117;27;98139;-74
2022/03/06 05:06:54;;;;;;;1999.90;999.90;;;;;;;-2.25;45.63;102113.91;5017853;27;97650;-73
2022/03/06 05:09:21;;;;;;;1999.90;999.90;;;;;;;-2.26;45.42;102114.69;5016784;27;100795;-74
2022/03/06 05:11:49;;;;;;;1999.90;999.90;;;;;;;-2.26;46.09;102114.69;5017593;27;99274;-75
2022/03/06 05:14:18;;;;;;;1999.90;999.90;;;;;;;-2.28;45.60;102108.44;5016553;27;96828;-75
2022/03/06 05:16:46;;;;;;;1999.90;999.90;;;;;;;-2.27;45.77;102117.19;5000161;27;97101;-74
2022/03/06 05:19:14;;;;;;;1999.90;999.90;;;;;;;-2.27;45.22;102115.47;5016823;27;97790;-74
2022/03/06 05:21:42;;;;;;;1999.90;999.90;;;;;;;-2.26;45.26;102117.31;5018957;27;96809;-75
2022/03/06 05:24:10;;;;;;;1999.90;999.90;;;;;;;-2.27;46.08;102112.84;5015656;27;98588;-74
2022/03/06 05:26:38;;;;;;;1999.90;999.90;;;;;;;-2.28;45.57;102116.25;5008515;27;96954;-73
2022/03/06 05:29:05;;;;;;;1999.90;999.90;;;;;;;-2.29;45.87;102108.28;5009508;27;97469;-72
2022/03/06 05:31:34;;;;;;;1999.90;999.90;;;;;;;-2.31;45.91;102115.94;5010929;27;99206;-74
2022/03/06 05:34:02;;;;;;;1999.90;999.90;;;;;;;-2.31;45.84;102113.34;5008947;27;98753;-73
2022/03/06 05:36:30;;;;;;;1999.90;999.90;;;;;;;-2.31;45.56;102115.94;5017236;27;97845;-74
2022/03/06 05:38:58;;;;;;;1999.90;999.90;;;;;;;-2.32;45.73;102116.72;5016604;27;99498;-74
2022/03/06 05:41:25;;;;;;;1999.90;999.90;;;;;;;-2.35;46.04;102112.91;5018518;27;98775;-74
2022/03/06 05:43:53;;;;;;;1999.90;999.90;;;;;;;-2.38;45.76;102110.94;5018836;27;96838;-74
2022/03/06 05:46:21;;;;;;;1999.90;999.90;;;;;;;-2.02;45.15;102111.81;5009879;27;97842;-75
2022/03/06 05:48:50;;;;;;;1999.90;999.90;;;;;;;-2.25;45.49;102108.69;5015693;27;98030;-74
2022/03/06 05:51:18;;;;;;;1999.90;999.90;;;;;;;-2.29;46.07;102111.78;5014912;27;98586;-73
2022/03/06 05:53:46;;;;;;;1999.90;999.90;;;;;;;-2.29;45.91;102111.78;5015778;27;97634;-75
2022/03/06 05:56:14;;;;;;;1999.90;999.90;;;;;;;-2.30;45.52;102117.78;5014213;27;98737;-73
2022/03/06 05:58:42;;;;;;;1999.90;999.90;;;;;;;-2.33;45.27;102122.72;5016564;27;97700;-74
2022/03/06 06:01:10;;;;;;;1999.90;999.90;;;;;;;-2.36;45.96;102117.22;5018753;27;97593;-77
2022/03/06 06:03:38;;;;;;;1999.90;999.90;;;;;;;-1.96;44.48;102116.63;5015357;27;97046;-74
2022/03/06 06:06:07;;;;;;;1999.90;999.90;;;;;;;-2.20;45.38;102123.06;5013920;27;97551;-74
2022/03/06 06:08:35;;;;;;;1999.90;999.90;;;;;;;-2.24;45.75;102120.06;5013162;27;99041;-73
2022/03/06 06:11:03;;;;;;;1999.90;999.90;;;;;;;-2.26;45.93;102117.31;5007629;27;98826;-73
2022/03/06 06:13:31;;;;;;;1999.90;999.90;;;;;;;-2.28;45.95;102117.94;5010591;27;97744;-72
2022/03/06 06:16:12;;;;;;;1999.90;999.90;;;;;;;-2.30;46.04;102128.22;5006859;27;98276;-72
2022/03/06 06:18:40;;;;;;;1999.90;999.90;;;;;;;-2.30;45.67;102120.41;5013015;27;101721;-73
2022/03/06 06:21:10;;;;;;;1999.90;999.90;;;;;;;-2.30;45.47;102125.63;5013087;27;97858;-73
2022/03/06 06:23:38;;;;;;;1999.90;999.90;;;;;;;-2.33;46.10;102114.91;5003483;27;99380;-73
2022/03/06 06:26:06;;;;;;;1999.90;999.90;;;;;;;-2.32;46.12;102115.81;5005802;27;97314;-72
2022/03/06 06:28:34;;;;;;;1999.90;999.90;;;;;;;-2.31;46.05;102126.38;5001603;27;99243;-72
2022/03/06 06:31:02;;;;;;;1999.90;999.90;;;;;;;-2.31;46.12;102126.38;5003454;27;97964;-73
2022/03/06 06:33:30;;;;;;;1999.90;999.90;;;;;;;-2.31;45.76;102131.56;5010618;27;99415;-72
2022/03/06 06:35:58;;;;;;;1999.90;999.90;;;;;;;-2.31;45.95;102131.56;5010944;27;96950;-73
2022/03/06 06:38:27;;;;;;;1999.90;999.90;;;;;;;-2.32;45.73;102129.75;5005581;27;99844;-73
2022/03/06 06:40:55;;;;;;;1999.90;999.90;;;;;;;-2.33;45.42;102121.81;5005082;27;99818;-73
2022/03/06 06:43:25;;;;;;;1999.90;999.90;;;;;;;-2.34;45.92;102118.28;5006073;27;97132;-73
2022/03/06 06:45:53;;;;;;;1999.90;999.90;;;;;;;-2.33;45.17;102127.94;5003354;27;97946;-72
2022/03/06 06:48:21;;;;;;;1999.90;999.90;;;;;;;-2.32;45.51;102126.22;5003631;27;98724;-73
2022/03/06 06:50:49;;;;;;;1999.90;999.90;;;;;;;-2.34;45.56;102131.31;5003958;27;97485;-74
2022/03/06 06:53:17;;;;;;;1999.90;999.90;;;;;;;-2.33;45.48;102134.84;5021815;27;98259;-74
2022/03/06 06:55:46;;;;;;;1999.90;999.90;;;;;;;-2.32;45.32;102126.22;5009960;27;97848;-72
2022/03/06 06:58:14;;;;;;;1999.90;999.90;;;;;;;-2.36;45.21;102132.84;5010496;27;97950;-72
2022/03/06 07:00:42;;;;;;;1999.90;999.90;;;;;;;-2.34;45.62;102136.50;5002551;27;99048;-73
2022/03/06 07:03:10;;;;;;;1999.90;999.90;;;;;;;-2.31;45.71;102143.72;5021545;27;98132;-73
2022/03/06 07:05:39;;;;;;;1999.90;999.90;;;;;;;-2.30;45.47;102146.47;5006305;27;96841;-72
2022/03/06 07:08:07;;;;;;;1999.90;999.90;;;;;;;-2.29;44.99;102150.88;4990404;27;97643;-72
2022/03/06 07:10:35;;;;;;;1999.90;999.90;;;;;;;-2.28;45.80;102155.34;5007924;27;98031;-73
2022/03/06 07:13:04;;;;;;;1999.90;999.90;;;;;;;-2.24;45.21;102148.72;5010255;27;97747;-73
2022/03/06 07:15:32;;;;;;;1999.90;999.90;;;;;;;-2.23;45.79;102155.75;5004607;27;97632;-73
2022/03/06 07:18:01;;;;;;;1999.90;999.90;;;;;;;-2.22;45.62;102157.63;5021965;27;99507;-72
2022/03/06 07:20:29;;;;;;;1999.90;999.90;;;;;;;-2.21;45.08;102159.44;5006303;27;98876;-73
2022/03/06 07:22:57;;;;;;;1999.90;999.90;;;;;;;-2.20;45.14;102159.56;5008395;27;98391;-73
2022/03/06 07:25:26;;;;;;;1999.90;999.90;;;;;;;-2.17;44.97;102161.59;4990589;27;97005;-72
2022/03/06 07:27:54;;;;;;;1999.90;999.90;;;;;;;-2.14;45.82;102161.88;4991590;27;97739;-73
2022/03/06 07:30:24;;;;;;;1999.90;999.90;;;;;;;-2.13;45.35;102164.66;5011082;27;97772;-72
2022/03/06 07:32:54;;;;;;;1999.90;999.90;;;;;;;-2.14;44.94;102173.22;4984663;27;99086;-73
2022/03/06 07:35:24;;;;;;;1999.90;999.90;;;;;;;-2.13;45.57;102164.66;5008473;27;96979;-74
2022/03/06 07:37:52;;;;;;;1999.90;999.90;;;;;;;-2.13;45.41;102168.94;5008961;27;101411;-74
2022/03/06 07:40:21;;;;;;;1999.90;999.90;;;;;;;-2.13;45.54;102169.88;5007356;27;98071;-73
2022/03/06 07:42:54;;;;;;;1999.90;999.90;;;;;;;-2.11;45.01;102177.81;5008509;27;97261;-74
2022/03/06 07:45:23;;;;;;;1999.90;999.90;;;;;;;-2.09;45.21;102177.19;5007683;27;97332;-73
2022/03/06 07:47:51;;;;;;;1999.90;999.90;;;;;;;-2.07;45.08;102170.41;5009796;27;99390;-74
2022/03/06 07:50:19;;;;;;;1999.90;999.90;;;;;;;-2.07;44.77;102178.25;5005482;27;99046;-73
2022/03/06 07:52:48;;;;;;;1999.90;999.90;;;;;;;-2.06;45.08;102177.47;5015083;27;97940;-73
2022/03/06 07:55:16;;;;;;;1999.90;999.90;;;;;;;-2.03;44.88;102176.84;5014032;27;98960;-72
2022/03/06 07:57:44;;;;;;;1999.90;999.90;;;;;;;-2.16;45.41;102179.06;5016344;27;98028;-71
2022/03/06 08:00:13;;;;;;;1999.90;999.90;;;;;;;-2.15;45.37;102183.53;5017046;27;97844;-71
2022/03/06 08:02:42;;;;;;;1999.90;999.90;;;;;;;-2.16;45.00;102193.03;5013362;27;97326;-70
2022/03/06 08:05:10;;;;;;;1999.90;999.90;;;;;;;-2.14;45.14;102187.94;4998213;27;98464;-73
2022/03/06 08:07:38;;;;;;;1999.90;999.90;;;;;;;-2.13;45.70;102185.50;5008945;27;99427;-70
2022/03/06 08:10:08;;;;;;;1999.90;999.90;;;;;;;-1.82;44.22;102184.94;5011768;27;99730;-69
2022/03/06 08:12:36;;;;;;;1999.90;999.90;;;;;;;-2.02;44.85;102190.03;5012777;27;98553;-71
2022/03/06 08:15:05;;;;;;;1999.90;999.90;;;;;;;-1.68;43.79;102187.94;5017733;27;98633;-70
2022/03/06 08:17:33;;;;;;;1999.90;999.90;;;;;;;-1.50;42.80;102180.09;4982262;28;98787;-72
2022/03/06 08:20:03;;;;;;;1999.90;999.90;;;;;;;-1.76;43.32;102184.59;5016714;27;98044;-72
2022/03/06 08:22:31;;;;;;;1999.90;999.90;;;;;;;-1.85;43.92;102184.69;5009872;27;96833;-71
2022/03/06 08:24:59;;;;;;;1999.90;999.90;;;;;;;-1.53;43.03;102187.66;5004693;27;97804;-71
2022/03/06 08:27:27;;;;;;;1999.90;999.90;;;;;;;-1.35;41.96;102191.94;5010561;27;102230;-71
2022/03/06 08:29:56;;;;;;;1999.90;999.90;;;;;;;-1.21;41.72;102193.19;5005709;27;98000;-70
2022/03/06 08:32:24;;;;;;;1999.90;999.90;;;;;;;-1.09;41.26;102196.91;5011587;27;97869;-72
2022/03/06 08:34:52;;;;;;;1999.90;999.90;;;;;;;-1.49;42.03;102204.50;5010611;27;99523;-71
2022/03/06 08:37:21;;;;;;;1999.90;999.90;;;;;;;-1.21;41.36;102214.06;5011063;27;98146;-72
2022/03/06 08:39:50;;;;;;;1999.90;999.90;;;;;;;-1.06;40.36;102208.56;5008051;27;98889;-71
2022/03/06 08:42:17;;;;;;;1999.90;999.90;;;;;;;-1.00;40.07;102213.41;5013342;27;97433;-77
2022/03/06 08:44:45;;;;;;;1999.90;999.90;;;;;;;-0.92;40.13;102213.31;5030912;27;97728;-74
2022/03/06 08:47:13;;;;;;;1999.90;999.90;;;;;;;-1.32;41.14;102212.22;5016009;27;99457;-76
2022/03/06 08:49:42;;;;;;;1999.90;999.90;;;;;;;-1.42;41.85;102214.75;5021380;27;99835;-78
2022/03/06 08:52:10;;;;;;;1999.90;999.90;;;;;;;-1.55;41.90;102217.00;5000658;27;100249;-72
2022/03/06 08:54:39;;;;;;;1999.90;999.90;;;;;;;-1.62;42.20;102219.81;5016129;27;97416;-76
2022/03/06 08:57:07;;;;;;;1999.90;999.90;;;;;;;-1.65;42.45;102210.00;5015914;27;97810;-76
2022/03/06 08:59:35;;;;;;;1999.90;999.90;;;;;;;-1.30;41.74;102214.16;5012848;27;97630;-75
2022/03/06 09:02:04;;;;;;;1999.90;999.90;;;;;;;-1.11;41.07;102216.75;5015067;27;99784;-74
2022/03/06 09:04:33;;;;;;;1999.90;999.90;;;;;;;-1.38;41.26;102214.25;5015825;27;98132;-70
2022/03/06 09:07:01;;;;;;;1999.90;999.90;;;;;;;-1.44;42.26;102206.78;5018490;27;98802;-71
2022/03/06 09:09:29;;;;;;;1999.90;999.90;;;;;;;-1.47;42.12;102211.69;5014787;27;101265;-70
2022/03/06 09:11:58;;;;;;;1999.90;999.90;;;;;;;-1.48;42.50;102214.16;5015468;27;97085;-74
2022/03/06 09:14:26;;;;;;;1999.90;999.90;;;;;;;-1.51;42.36;102213.91;5014518;27;98276;-71
2022/03/06 09:16:54;;;;;;;1999.90;999.90;;;;;;;-1.54;42.24;102205.78;5013717;27;99318;-71
2022/03/06 09:19:22;;;;;;;1999.90;999.90;;;;;;;-1.53;42.26;102213.75;5012316;27;97576;-71
2022/03/06 09:21:50;;;;;;;1999.90;999.90;;;;;;;-1.55;42.42;102211.78;5015453;27;98096;-72
2022/03/06 09:24:18;;;;;;;1999.90;999.90;;;;;;;-1.53;42.78;102212.84;5015392;27;97005;-75
2022/03/06 09:26:47;;;;;;;1999.90;999.90;;;;;;;-1.52;42.36;102212.06;4996882;28;97629;-72
2022/03/06 09:29:16;;;;;;;1999.90;999.90;;;;;;;-1.52;42.95;102215.59;5016410;27;97881;-72
2022/03/06 09:31:44;;;;;;;1999.90;999.90;;;;;;;-1.46;43.04;102212.63;5005951;27;97337;-73
2022/03/06 09:34:12;;;;;;;1999.90;999.90;;;;;;;-1.43;42.35;102215.53;5013896;27;98372;-71
2022/03/06 09:36:46;;;;;;;1999.90;999.90;;;;;;;-1.46;42.59;102210.00;5018022;27;99078;-71
2022/03/06 09:39:14;;;;;;;1999.90;999.90;;;;;;;-1.47;43.00;102216.91;5000547;27;98772;-71
2022/03/06 09:41:42;;;;;;;1999.90;999.90;;;;;;;-1.45;43.14;102219.69;5015738;27;96782;-71
2022/03/06 09:44:12;;;;;;;1999.90;999.90;;;;;;;-1.43;42.30;102216.41;5015950;27;97836;-72
2022/03/06 09:46:42;;;;;;;1999.90;999.90;;;;;;;-1.12;41.18;102213.22;5014517;27;98657;-70
2022/03/06 09:49:10;;;;;;;1999.90;999.90;;;;;;;-1.28;41.53;102222.13;5016222;27;98800;-71
2022/03/06 09:51:41;;;;;;;1999.90;999.90;;;;;;;-1.36;42.30;102221.41;5016254;27;102076;-73
2022/03/06 09:54:10;;;;;;;1999.90;999.90;;;;;;;-1.38;42.49;102223.00;5015851;27;98831;-70
2022/03/06 09:56:38;;;;;;;1999.90;999.90;;;;;;;-1.09;41.29;102220.41;5014723;27;98130;-73
2022/03/06 09:59:07;;;;;;;1999.90;999.90;;;;;;;-1.33;41.19;102221.72;5017593;27;99175;-71
2022/03/06 10:01:35;;;;;;;1999.90;999.90;;;;;;;-1.41;41.87;102219.16;5016647;27;97061;-71
2022/03/06 10:04:24;;;;;;;1999.90;999.90;;;;;;;-1.50;41.64;102228.75;4999407;27;96866;-73
2022/03/06 10:06:58;;;;;;;1999.90;999.90;;;;;;;-1.54;41.60;102226.69;5034239;27;97548;-75
2022/03/06 10:09:26;;;;;;;1999.90;999.90;;;;;;;-1.56;41.93;102223.00;5016723;27;97654;-72
2022/03/06 10:11:54;;;;;;;1999.90;999.90;;;;;;;-1.58;41.78;102222.88;5018372;27;98608;-71
2022/03/06 10:14:39;;;;;;;1999.90;999.90;;;;;;;-1.61;41.75;102224.25;5015453;27;97729;-72
2022/03/06 10:17:13;;;;;;;1999.90;999.90;;;;;;;-1.66;41.66;102220.31;5015770;27;99381;-71
2022/03/06 10:20:04;;;;;;;1999.90;999.90;;;;;;;-1.71;41.58;102218.97;4997757;28;98627;-72
2022/03/06 10:22:33;;;;;;;1999.90;999.90;;;;;;;-1.69;41.92;102220.03;4994341;27;97249;-71
2022/03/06 10:25:03;;;;;;;1999.90;999.90;;;;;;;-1.69;42.42;102223.56;5017798;27;97343;-72
2022/03/06 10:27:45;;;;;;;1999.90;999.90;;;;;;;-1.71;41.72;102224.19;4997413;28;97786;-73
2022/03/06 10:30:25;;;;;;;1999.90;999.90;;;;;;;-1.72;41.53;102227.59;5015420;27;97587;-72
2022/03/06 10:32:53;;;;;;;1999.90;999.90;;;;;;;-1.73;41.65;102225.72;5015416;27;97268;-72
2022/03/06 10:35:31;;;;;;;1999.90;999.90;;;;;;;-1.44;40.30;102227.66;4995205;27;98802;-74
2022/03/06 10:37:59;;;;;;;1999.90;999.90;;;;;;;-1.60;41.11;102233.94;5013920;27;97962;-74
2022/03/06 10:40:34;;;;;;;1999.90;999.90;;;;;;;-1.63;41.21;102229.34;5015153;27;100657;-71
2022/03/06 10:43:05;;;;;;;1999.90;999.90;;;;;;;-1.34;39.77;102226.81;5014806;27;97173;-70
2022/03/06 10:45:33;;;;;;;1999.90;999.90;;;;;;;-1.15;38.58;102228.63;5012962;27;98975;-72
2022/03/06 10:48:08;;;;;;;1999.90;999.90;;;;;;;-1.44;39.63;102217.22;5015280;27;98848;-73
2022/03/06 10:50:38;;;;;;;1999.90;999.90;;;;;;;-1.50;39.98;102226.16;5012795;27;97621;-71
2022/03/06 10:53:20;;;;;;;1999.90;999.90;;;;;;;-1.60;39.67;102227.03;4998686;27;98881;-70
2022/03/06 10:55:49;;;;;;;1999.90;999.90;;;;;;;-1.60;40.54;102226.09;5011099;27;97867;-72